createdAt,value
2023-01-26T00:02:13.162Z,11.80
2023-01-26T00:04:41.307Z,13.43
2023-01-26T00:07:09.373Z,14.97
2023-01-26T00:09:37.523Z,12.63
2023-01-26T00:12:05.983Z,11.47
2023-01-26T00:14:50.360Z,10.97
2023-01-26T00:17:26.207Z,10.43
2023-01-26T00:19:56.361Z,10.03
2023-01-26T00:22:25.724Z,10.10
2023-01-26T00:24:53.830Z,9.13
2023-01-26T00:27:21.944Z,8.43
2023-01-26T00:29:51.345Z,9.50
2023-01-26T00:32:19.493Z,8.00
2023-01-26T00:34:47.493Z,9.93
2023-01-26T00:37:15.499Z,13.43
2023-01-26T00:39:43.610Z,13.20
2023-01-26T00:42:13.991Z,10.37
2023-01-26T00:44:44.227Z,11.83
2023-01-26T00:47:14.883Z,11.97
2023-01-26T00:49:43.133Z,13.30
2023-01-26T00:52:11.654Z,12.83
2023-01-26T00:54:40.061Z,13.57
2023-01-26T00:57:08.246Z,14.90
2023-01-26T00:59:36.340Z,15.97
2023-01-26T01:02:04.928Z,13.70
2023-01-26T01:04:34.589Z,14.23
2023-01-26T01:07:02.713Z,16.43
2023-01-26T01:09:30.858Z,18.27
2023-01-26T01:11:58.921Z,17.93
2023-01-26T01:14:27.057Z,16.93
2023-01-26T01:16:55.214Z,15.87
2023-01-26T01:19:23.234Z,15.43
2023-01-26T01:21:52.653Z,21.37
2023-01-26T01:24:20.865Z,15.70
2023-01-26T01:26:49.057Z,15.13
2023-01-26T01:29:17.163Z,16.13
2023-01-26T01:31:45.393Z,16.03
2023-01-26T01:34:13.511Z,14.77
2023-01-26T01:36:41.728Z,20.83
2023-01-26T01:39:11.254Z,21.00
2023-01-26T01:41:39.267Z,17.27
2023-01-26T01:44:15.598Z,17.20
2023-01-26T01:46:52.009Z,16.80
2023-01-26T01:49:24.172Z,16.10
2023-01-26T01:51:57.242Z,18.30
2023-01-26T01:54:31.610Z,17.20
2023-01-26T01:57:03.452Z,21.80
2023-01-26T01:59:33.939Z,20.23
2023-01-26T02:02:02.357Z,22.63
2023-01-26T02:04:30.879Z,23.20
2023-01-26T02:07:01.746Z,18.57
2023-01-26T02:10:00.197Z,19.10
2023-01-26T02:12:32.468Z,19.20
2023-01-26T02:15:02.493Z,19.87
2023-01-26T02:17:30.708Z,21.27
2023-01-26T02:20:05.682Z,21.50
2023-01-26T02:22:42.599Z,20.43
2023-01-26T02:25:30.140Z,21.47
2023-01-26T02:28:00.150Z,25.37
2023-01-26T02:30:29.716Z,19.77
2023-01-26T02:32:57.840Z,19.13
2023-01-26T02:35:25.855Z,19.87
2023-01-26T02:37:53.933Z,18.87
2023-01-26T02:40:32.217Z,21.07
2023-01-26T02:43:02.646Z,22.23
2023-01-26T02:45:33.289Z,22.80
2023-01-26T02:48:04.833Z,19.67
2023-01-26T02:50:32.504Z,20.07
2023-01-26T02:53:01.218Z,19.27
2023-01-26T02:55:28.922Z,20.63
2023-01-26T02:57:59.173Z,18.53
2023-01-26T03:00:30.466Z,19.67
2023-01-26T03:03:02.066Z,22.13
2023-01-26T03:05:30.406Z,22.00
2023-01-26T03:07:58.670Z,20.10
2023-01-26T03:10:27.260Z,18.03
2023-01-26T03:12:55.340Z,21.70
2023-01-26T03:15:41.100Z,19.70
2023-01-26T03:18:30.182Z,31.00
2023-01-26T03:21:17.714Z,20.57
2023-01-26T03:24:03.146Z,16.93
2023-01-26T03:26:48.640Z,17.87
2023-01-26T03:29:17.120Z,18.97
2023-01-26T03:31:45.256Z,23.00
2023-01-26T03:34:14.650Z,20.53
2023-01-26T03:36:43.414Z,21.97
2023-01-26T03:39:31.569Z,19.63
2023-01-26T03:42:17.270Z,20.07
2023-01-26T03:45:02.708Z,21.90
2023-01-26T03:47:49.769Z,22.10
2023-01-26T03:50:37.107Z,21.40
2023-01-26T03:53:30.831Z,26.93
2023-01-26T03:56:16.035Z,21.37
2023-01-26T03:58:44.045Z,23.90
2023-01-26T04:01:20.197Z,21.60
2023-01-26T04:04:07.042Z,21.30
2023-01-26T04:06:54.900Z,20.03
2023-01-26T04:09:23.353Z,19.67
2023-01-26T04:11:51.471Z,19.13
2023-01-26T04:14:50.077Z,20.47
2023-01-26T04:17:36.547Z,17.20
2023-01-26T04:20:23.240Z,19.20
2023-01-26T04:22:52.886Z,18.43
2023-01-26T04:25:22.867Z,15.67
2023-01-26T04:27:51.391Z,18.93
2023-01-26T04:30:20.325Z,18.70
2023-01-26T04:32:48.403Z,13.73
2023-01-26T04:35:16.535Z,18.93
2023-01-26T04:37:44.665Z,17.27
2023-01-26T04:40:14.984Z,15.27
2023-01-26T04:42:43.195Z,22.67
2023-01-26T04:45:11.931Z,19.23
2023-01-26T04:47:40.409Z,16.77
2023-01-26T04:50:10.554Z,15.70
2023-01-26T04:52:38.835Z,24.40
2023-01-26T04:55:07.315Z,34.37
2023-01-26T04:57:36.876Z,58.77
2023-01-26T05:00:05.994Z,30.47
2023-01-26T05:02:34.025Z,20.50
2023-01-26T05:05:02.166Z,23.63
2023-01-26T05:07:30.235Z,24.53
2023-01-26T05:09:58.292Z,34.90
2023-01-26T05:12:35.661Z,24.87
2023-01-26T05:15:05.613Z,21.80
2023-01-26T05:17:33.674Z,27.50
2023-01-26T05:20:01.750Z,25.67
2023-01-26T05:22:29.809Z,24.90
2023-01-26T05:24:57.947Z,18.10
2023-01-26T05:27:26.024Z,18.77
2023-01-26T05:29:55.309Z,23.33
2023-01-26T05:32:24.807Z,18.63
2023-01-26T05:34:52.832Z,17.23
2023-01-26T05:37:21.056Z,21.00
2023-01-26T05:39:49.256Z,19.40
2023-01-26T05:42:17.492Z,18.70
2023-01-26T05:44:45.668Z,19.67
2023-01-26T05:47:13.904Z,19.13
2023-01-26T05:49:45.839Z,22.57
2023-01-26T05:52:17.110Z,18.63
2023-01-26T05:54:45.337Z,21.77
2023-01-26T05:57:13.613Z,21.33
2023-01-26T05:59:44.084Z,18.70
2023-01-26T06:02:13.691Z,15.50
2023-01-26T06:04:43.268Z,17.83
2023-01-26T06:07:13.711Z,19.70
2023-01-26T06:09:42.157Z,19.90
2023-01-26T06:12:17.011Z,21.27
2023-01-26T06:14:47.244Z,30.10
2023-01-26T06:17:17.340Z,24.93
2023-01-26T06:19:46.976Z,20.87
2023-01-26T06:22:16.125Z,20.57
2023-01-26T06:24:44.399Z,19.27
2023-01-26T06:27:14.838Z,19.10
2023-01-26T06:29:43.134Z,16.37
2023-01-26T06:32:11.604Z,17.10
2023-01-26T06:34:40.000Z,16.73
2023-01-26T06:37:09.557Z,17.37
2023-01-26T06:39:37.761Z,17.07
2023-01-26T06:42:06.339Z,16.93
2023-01-26T06:44:34.454Z,18.87
2023-01-26T06:47:02.522Z,18.90
2023-01-26T06:49:30.631Z,15.87
2023-01-26T06:52:04.589Z,18.43
2023-01-26T06:54:33.984Z,17.97
2023-01-26T06:57:02.347Z,16.87
2023-01-26T06:59:30.507Z,13.97
2023-01-26T07:01:58.657Z,18.77
2023-01-26T07:04:28.017Z,18.63
2023-01-26T07:06:56.254Z,16.10
2023-01-26T07:09:24.385Z,20.00
2023-01-26T07:11:53.831Z,16.07
2023-01-26T07:14:23.163Z,14.20
2023-01-26T07:16:51.269Z,14.63
2023-01-26T07:19:19.310Z,17.67
2023-01-26T07:21:48.811Z,17.83
2023-01-26T07:24:17.026Z,16.93
2023-01-26T07:26:45.435Z,15.57
2023-01-26T07:29:15.095Z,15.83
2023-01-26T07:31:44.798Z,14.63
2023-01-26T07:34:13.313Z,15.40
2023-01-26T07:36:41.899Z,19.97
2023-01-26T07:39:10.221Z,20.03
2023-01-26T07:41:38.402Z,18.53
2023-01-26T07:44:11.106Z,15.53
2023-01-26T07:46:41.727Z,15.40
2023-01-26T07:49:12.463Z,17.30
2023-01-26T07:51:41.115Z,20.00
2023-01-26T07:54:12.978Z,17.80
2023-01-26T07:56:41.144Z,22.77
2023-01-26T07:59:11.798Z,19.27
2023-01-26T08:01:41.269Z,17.57
2023-01-26T08:04:09.439Z,16.53
2023-01-26T08:06:37.673Z,20.13
2023-01-26T08:09:06.541Z,17.57
2023-01-26T08:11:34.964Z,19.10
2023-01-26T08:14:03.206Z,18.80
2023-01-26T08:16:31.486Z,21.33
2023-01-26T08:19:01.253Z,20.00
2023-01-26T08:21:29.826Z,16.00
2023-01-26T08:24:02.035Z,17.43
2023-01-26T08:26:30.602Z,17.63
2023-01-26T08:28:59.112Z,24.20
2023-01-26T08:31:28.418Z,23.37
2023-01-26T08:33:57.883Z,23.90
2023-01-26T08:36:28.811Z,23.90
2023-01-26T08:38:57.174Z,21.97
2023-01-26T08:41:25.416Z,22.77
2023-01-26T08:43:54.241Z,24.40
2023-01-26T08:46:22.596Z,21.23
2023-01-26T08:48:50.708Z,24.07
2023-01-26T08:51:19.051Z,25.87
2023-01-26T08:53:48.684Z,28.97
2023-01-26T08:56:16.847Z,21.53
2023-01-26T08:58:44.951Z,24.07
2023-01-26T09:01:15.223Z,23.23
2023-01-26T09:03:43.644Z,18.90
2023-01-26T09:06:15.067Z,19.70
2023-01-26T09:08:43.430Z,20.90
2023-01-26T09:11:13.394Z,22.77
2023-01-26T09:13:45.404Z,23.53
2023-01-26T09:16:18.849Z,21.13
2023-01-26T09:18:50.100Z,20.20
2023-01-26T09:21:18.960Z,22.00
2023-01-26T09:23:47.034Z,19.93
2023-01-26T09:26:16.636Z,21.33
2023-01-26T09:28:44.692Z,20.20
2023-01-26T09:31:13.645Z,21.70
2023-01-26T09:33:44.683Z,19.80
2023-01-26T09:36:14.039Z,19.37
2023-01-26T09:38:42.518Z,18.00
2023-01-26T09:41:27.149Z,21.83
2023-01-26T09:43:58.601Z,19.53
2023-01-26T09:46:30.815Z,26.00
2023-01-26T09:49:07.316Z,17.10
2023-01-26T09:51:38.990Z,25.20
2023-01-26T09:54:17.159Z,34.93
2023-01-26T09:56:47.141Z,27.37
2023-01-26T09:59:25.538Z,24.70
2023-01-26T10:02:01.252Z,21.87
2023-01-26T10:04:36.789Z,21.63
2023-01-26T10:07:11.148Z,23.43
2023-01-26T10:09:41.902Z,24.67
2023-01-26T10:12:20.040Z,21.43
2023-01-26T10:14:53.973Z,23.87
2023-01-26T10:17:29.680Z,19.50
2023-01-26T10:20:03.885Z,22.70
2023-01-26T10:22:40.580Z,23.93
2023-01-26T10:25:16.389Z,32.60
2023-01-26T10:27:47.127Z,24.90
2023-01-26T10:30:16.987Z,24.60
2023-01-26T10:32:46.995Z,24.73
2023-01-26T10:35:20.879Z,19.13
2023-01-26T10:37:49.601Z,19.47
2023-01-26T10:40:18.774Z,26.90
2023-01-26T10:42:57.734Z,16.93
2023-01-26T10:45:31.268Z,17.67
2023-01-26T10:48:05.462Z,16.97
2023-01-26T10:50:34.194Z,19.90
2023-01-26T10:53:04.721Z,26.07
2023-01-26T10:55:33.852Z,27.67
2023-01-26T10:58:03.623Z,25.43
2023-01-26T11:00:34.222Z,23.30
2023-01-26T11:03:08.130Z,27.40
2023-01-26T11:05:39.778Z,19.33
2023-01-26T11:08:36.157Z,17.23
2023-01-26T11:11:07.109Z,19.23
2023-01-26T11:13:35.560Z,16.97
2023-01-26T11:16:13.255Z,19.37
2023-01-26T11:18:50.442Z,18.57
2023-01-26T11:21:27.934Z,21.50
2023-01-26T11:24:06.399Z,19.57
2023-01-26T11:27:04.919Z,20.93
2023-01-26T11:29:58.862Z,27.23
2023-01-26T11:32:36.101Z,22.70
2023-01-26T11:35:16.611Z,23.67
2023-01-26T11:37:47.596Z,24.17
2023-01-26T11:40:39.350Z,23.50
2023-01-26T11:43:50.901Z,22.90
2023-01-26T11:46:33.285Z,26.83
2023-01-26T11:49:15.934Z,22.20
2023-01-26T11:51:56.905Z,25.10
2023-01-26T11:54:36.217Z,26.30
2023-01-26T11:57:20.316Z,24.43
2023-01-26T11:59:54.684Z,22.57
2023-01-26T12:02:31.281Z,22.47
2023-01-26T12:05:05.997Z,21.20
2023-01-26T12:07:54.711Z,20.10
2023-01-26T12:10:29.282Z,24.40
2023-01-26T12:13:06.675Z,24.93
2023-01-26T12:15:37.922Z,24.27
2023-01-26T12:18:16.611Z,25.87
2023-01-26T12:20:47.440Z,22.23
2023-01-26T12:23:25.873Z,24.70
2023-01-26T12:25:59.383Z,24.40
2023-01-26T12:28:33.014Z,28.63
2023-01-26T12:31:09.273Z,26.00
2023-01-26T12:33:38.659Z,26.30
2023-01-26T12:36:29.340Z,23.53
2023-01-26T12:39:10.222Z,22.27
2023-01-26T12:42:00.570Z,21.73
2023-01-26T12:44:38.623Z,24.30
2023-01-26T12:47:14.064Z,25.53
2023-01-26T12:49:48.376Z,22.97
2023-01-26T12:52:25.224Z,25.53
2023-01-26T12:55:00.046Z,25.27
2023-01-26T12:57:35.551Z,26.53
2023-01-26T13:00:10.431Z,24.87
2023-01-26T13:02:48.073Z,22.27
2023-01-26T13:05:29.621Z,19.60
2023-01-26T13:07:58.329Z,23.77
2023-01-26T13:10:31.205Z,24.67
2023-01-26T13:13:01.338Z,25.10
2023-01-26T13:15:33.124Z,26.53
2023-01-26T13:18:02.811Z,36.77
2023-01-26T13:20:47.452Z,29.63
2023-01-26T13:23:52.398Z,30.10
2023-01-26T13:26:25.116Z,27.47
2023-01-26T13:28:54.498Z,27.90
2023-01-26T13:31:35.075Z,29.83
2023-01-26T13:34:10.220Z,26.30
2023-01-26T13:36:41.701Z,29.20
2023-01-26T13:39:16.834Z,29.27
2023-01-26T13:41:47.519Z,30.07
2023-01-26T13:44:21.620Z,27.07
2023-01-26T13:46:57.792Z,43.27
2023-01-26T13:49:28.139Z,24.27
2023-01-26T13:51:56.279Z,34.17
2023-01-26T13:54:27.063Z,25.87
2023-01-26T13:57:03.547Z,28.73
2023-01-26T13:59:33.225Z,40.47
2023-01-26T14:02:02.905Z,33.73
2023-01-26T14:04:32.503Z,34.50
2023-01-26T14:07:04.810Z,36.03
2023-01-26T14:09:35.280Z,34.23
2023-01-26T14:12:06.391Z,39.77
2023-01-26T14:14:38.191Z,59.77
2023-01-26T14:17:25.771Z,26.30
2023-01-26T14:19:54.186Z,24.43
2023-01-26T14:22:22.716Z,26.70
2023-01-26T14:24:52.378Z,51.47
2023-01-26T14:27:34.035Z,34.37
2023-01-26T14:30:02.424Z,21.93
2023-01-26T14:32:33.015Z,30.13
2023-01-26T14:35:01.827Z,22.70
2023-01-26T14:37:30.031Z,30.73
2023-01-26T14:40:12.225Z,35.40
2023-01-26T14:42:42.640Z,41.43
2023-01-26T14:45:14.376Z,37.03
2023-01-26T14:47:45.443Z,31.73
2023-01-26T14:50:20.718Z,28.40
2023-01-26T14:52:49.284Z,27.43
2023-01-26T14:55:23.296Z,26.97
2023-01-26T14:57:54.107Z,27.97
2023-01-26T15:00:27.262Z,32.80
2023-01-26T15:02:59.939Z,31.77
2023-01-26T15:05:34.391Z,29.73
2023-01-26T15:08:04.619Z,28.37
2023-01-26T15:10:37.296Z,26.37
2023-01-26T15:13:09.625Z,28.10
2023-01-26T15:15:41.047Z,34.00
2023-01-26T15:18:21.593Z,38.57
2023-01-26T15:21:00.731Z,45.83
2023-01-26T15:23:33.244Z,52.60
2023-01-26T15:26:09.419Z,50.87
2023-01-26T15:28:39.941Z,53.20
2023-01-26T15:31:12.129Z,45.73
2023-01-26T15:33:52.866Z,46.10
2023-01-26T15:36:35.455Z,48.67
2023-01-26T15:39:13.950Z,48.23
2023-01-26T15:41:42.392Z,47.27
2023-01-26T15:44:17.155Z,55.20
2023-01-26T15:46:45.673Z,50.37
2023-01-26T15:49:20.028Z,44.67
2023-01-26T15:51:48.194Z,44.27
2023-01-26T15:54:16.971Z,47.50
2023-01-26T15:56:45.273Z,47.60
2023-01-26T15:59:16.349Z,47.70
2023-01-26T16:01:44.734Z,56.97
2023-01-26T16:04:15.144Z,50.10
2023-01-26T16:06:43.393Z,52.33
2023-01-26T16:09:11.448Z,54.17
2023-01-26T16:11:45.659Z,42.77
2023-01-26T16:14:15.573Z,52.97
2023-01-26T16:16:43.934Z,52.20
2023-01-26T16:19:20.528Z,54.10
2023-01-26T16:21:56.027Z,74.53
2023-01-26T16:24:24.387Z,60.63
2023-01-26T16:26:52.427Z,58.27
2023-01-26T16:29:21.629Z,54.53
2023-01-26T16:31:49.933Z,57.03
2023-01-26T16:34:18.217Z,45.50
2023-01-26T16:36:46.443Z,50.03
2023-01-26T16:39:17.276Z,56.57
2023-01-26T16:41:48.138Z,48.40
2023-01-26T16:44:19.664Z,52.80
2023-01-26T16:46:47.752Z,54.03
2023-01-26T16:49:16.505Z,45.33
2023-01-26T16:51:45.541Z,50.20
2023-01-26T16:54:15.397Z,47.33
2023-01-26T16:56:44.426Z,55.10
2023-01-26T16:59:12.650Z,51.63
2023-01-26T17:01:41.082Z,53.77
2023-01-26T17:04:11.717Z,51.67
2023-01-26T17:06:40.149Z,45.83
2023-01-26T17:09:10.565Z,46.33
2023-01-26T17:11:41.208Z,51.73
2023-01-26T17:14:10.830Z,48.13
2023-01-26T17:16:39.179Z,53.00
2023-01-26T17:19:09.231Z,49.97
2023-01-26T17:21:38.460Z,50.93
2023-01-26T17:24:07.762Z,47.10
2023-01-26T17:26:36.043Z,44.80
2023-01-26T17:29:05.648Z,44.23
2023-01-26T17:31:34.367Z,73.60
2023-01-26T17:34:02.504Z,49.17
2023-01-26T17:36:31.001Z,47.33
2023-01-26T17:38:59.445Z,48.73
2023-01-26T17:41:29.344Z,58.57
2023-01-26T17:44:00.847Z,50.37
2023-01-26T17:46:30.617Z,48.77
2023-01-26T17:48:58.970Z,52.17
2023-01-26T17:51:27.131Z,56.90
2023-01-26T17:53:56.500Z,54.50
2023-01-26T17:56:25.153Z,52.87
2023-01-26T17:58:55.364Z,50.93
2023-01-26T18:01:25.267Z,44.93
2023-01-26T18:03:55.211Z,47.03
2023-01-26T18:06:24.549Z,44.00
2023-01-26T18:08:52.798Z,44.13
2023-01-26T18:11:22.453Z,46.03
2023-01-26T18:13:51.840Z,44.83
2023-01-26T18:16:22.920Z,41.20
2023-01-26T18:18:57.417Z,46.03
2023-01-26T18:21:27.546Z,43.90
2023-01-26T18:23:57.970Z,40.50
2023-01-26T18:26:28.531Z,39.53
2023-01-26T18:28:56.906Z,48.80
2023-01-26T18:31:26.484Z,42.07
2023-01-26T18:33:54.868Z,46.27
2023-01-26T18:36:24.561Z,44.00
2023-01-26T18:38:55.165Z,51.73
2023-01-26T18:41:24.606Z,52.17
2023-01-26T18:43:58.341Z,48.37
2023-01-26T18:46:27.717Z,46.30
2023-01-26T18:49:00.786Z,49.87
2023-01-26T18:51:32.481Z,56.77
2023-01-26T18:54:00.989Z,53.83
2023-01-26T18:56:32.033Z,62.37
2023-01-26T18:59:01.133Z,47.47
2023-01-26T19:01:29.449Z,47.93
2023-01-26T19:03:59.091Z,50.43
2023-01-26T19:06:28.574Z,53.27
2023-01-26T19:09:00.995Z,49.27
2023-01-26T19:11:32.220Z,49.27
2023-01-26T19:14:01.397Z,48.63
2023-01-26T19:16:30.856Z,45.53
2023-01-26T19:18:59.300Z,48.47
2023-01-26T19:21:28.778Z,45.83
2023-01-26T19:24:02.641Z,45.40
2023-01-26T19:26:30.974Z,48.57
2023-01-26T19:28:59.845Z,48.80
2023-01-26T19:31:29.405Z,46.93
2023-01-26T19:33:59.371Z,47.30
2023-01-26T19:36:29.618Z,48.63
2023-01-26T19:38:59.868Z,52.43
2023-01-26T19:41:28.831Z,50.83
2023-01-26T19:43:56.989Z,47.60
2023-01-26T19:46:25.626Z,51.87
2023-01-26T19:48:53.812Z,45.50
2023-01-26T19:51:24.015Z,53.10
2023-01-26T19:53:55.768Z,47.90
2023-01-26T19:56:27.041Z,43.63
2023-01-26T19:58:56.705Z,38.70
2023-01-26T20:01:26.293Z,45.47
2023-01-26T20:03:58.884Z,38.43
2023-01-26T20:06:29.240Z,35.27
2023-01-26T20:08:57.605Z,35.43
2023-01-26T20:11:29.627Z,34.13
2023-01-26T20:13:58.606Z,33.83
2023-01-26T20:16:28.331Z,32.90
2023-01-26T20:18:56.718Z,33.67
2023-01-26T20:21:25.625Z,29.83
2023-01-26T20:23:55.657Z,31.67
2023-01-26T20:26:25.423Z,28.80
2023-01-26T20:28:58.087Z,28.43
2023-01-26T20:31:27.772Z,35.00
2023-01-26T20:33:56.498Z,30.50
2023-01-26T20:36:27.334Z,30.07
2023-01-26T20:38:55.886Z,29.80
2023-01-26T20:41:25.917Z,26.47
2023-01-26T20:44:00.985Z,32.37
2023-01-26T20:46:31.607Z,27.70
2023-01-26T20:48:59.952Z,28.37
2023-01-26T20:51:30.829Z,30.57
2023-01-26T20:53:59.356Z,25.83
2023-01-26T20:56:27.895Z,27.47
2023-01-26T20:58:58.097Z,23.70
2023-01-26T21:01:26.959Z,23.30
2023-01-26T21:03:55.955Z,25.37
2023-01-26T21:06:26.312Z,21.60
2023-01-26T21:08:56.178Z,26.30
2023-01-26T21:11:25.987Z,24.07
2023-01-26T21:13:59.994Z,25.53
2023-01-26T21:16:29.469Z,23.77
2023-01-26T21:18:57.855Z,22.23
2023-01-26T21:21:26.307Z,21.23
2023-01-26T21:23:54.598Z,24.67
2023-01-26T21:26:24.512Z,25.23
2023-01-26T21:28:53.729Z,27.60
2023-01-26T21:31:25.851Z,22.33
2023-01-26T21:33:54.794Z,21.47
2023-01-26T21:36:24.800Z,22.17
2023-01-26T21:38:54.505Z,19.67
2023-01-26T21:41:42.163Z,20.67
2023-01-26T21:44:12.135Z,21.50
2023-01-26T21:46:42.133Z,17.70
2023-01-26T21:49:11.588Z,21.03
2023-01-26T21:51:57.068Z,24.30
2023-01-26T21:54:25.475Z,21.10
2023-01-26T21:56:53.742Z,21.23
2023-01-26T21:59:20.799Z,21.00
2023-01-26T22:01:51.944Z,14.77
2023-01-26T22:04:22.670Z,17.20
2023-01-26T22:06:52.283Z,20.10
2023-01-26T22:09:21.452Z,17.93
2023-01-26T22:11:50.750Z,17.13
2023-01-26T22:14:20.972Z,13.47
2023-01-26T22:16:50.636Z,14.90
2023-01-26T22:19:18.838Z,12.73
2023-01-26T22:21:46.964Z,16.57
2023-01-26T22:24:16.008Z,14.40
2023-01-26T22:26:44.185Z,18.17
2023-01-26T22:29:13.302Z,14.93
2023-01-26T22:31:43.064Z,17.03
2023-01-26T22:34:12.797Z,15.03
2023-01-26T22:36:41.498Z,15.53
2023-01-26T22:39:09.974Z,16.33
2023-01-26T22:41:38.260Z,17.07
2023-01-26T22:44:06.609Z,16.67
2023-01-26T22:46:35.103Z,16.40
2023-01-26T22:49:04.956Z,16.83
2023-01-26T22:51:37.564Z,17.40
2023-01-26T22:54:06.399Z,18.20
2023-01-26T22:56:34.870Z,19.50
2023-01-26T22:59:03.275Z,18.53
2023-01-26T23:01:33.534Z,19.43
2023-01-26T23:04:02.601Z,19.13
2023-01-26T23:06:31.409Z,19.70
2023-01-26T23:09:04.784Z,20.53
2023-01-26T23:11:33.443Z,18.10
2023-01-26T23:14:02.024Z,17.30
2023-01-26T23:16:31.054Z,17.47
2023-01-26T23:19:00.117Z,16.30
2023-01-26T23:21:29.192Z,21.67
2023-01-26T23:23:57.340Z,16.80
2023-01-26T23:26:29.340Z,16.40
2023-01-26T23:28:57.728Z,16.27
2023-01-26T23:31:25.808Z,17.57
2023-01-26T23:33:53.945Z,16.73
2023-01-26T23:36:22.159Z,17.00
2023-01-26T23:38:50.395Z,18.03
2023-01-26T23:41:18.877Z,20.10
2023-01-26T23:43:48.405Z,19.90
2023-01-26T23:46:16.493Z,16.80
2023-01-26T23:48:44.609Z,23.07
2023-01-26T23:51:13.541Z,20.53
2023-01-26T23:53:42.121Z,22.03
2023-01-26T23:56:12.024Z,17.10
2023-01-26T23:58:40.280Z,19.87
